sensor_id;sensor_type;location;lat;lon;timestamp;P1;durP1;ratioP1;P2;durP2;ratioP2
26486;SDS011;14425;56.136;40.360;2023-02-26T00:00:12;17.15;;;10.15;;
26486;SDS011;14425;56.136;40.360;2023-02-26T00:02:40;17.27;;;8.10;;
26486;SDS011;14425;56.136;40.360;2023-02-26T00:05:07;16.25;;;7.30;;
26486;SDS011;14425;56.136;40.360;2023-02-26T00:07:33;17.13;;;8.27;;
26486;SDS011;14425;56.136;40.360;2023-02-26T00:09:59;12.48;;;8.10;;
26486;SDS011;14425;56.136;40.360;2023-02-26T00:12:28;15.52;;;8.88;;
26486;SDS011;14425;56.136;40.360;2023-02-26T00:14:54;14.50;;;8.23;;
26486;SDS011;14425;56.136;40.360;2023-02-26T00:19:51;16.95;;;8.10;;
26486;SDS011;14425;56.136;40.360;2023-02-26T00:22:17;16.45;;;8.60;;
26486;SDS011;14425;56.136;40.360;2023-02-26T00:24:43;18.67;;;9.43;;
26486;SDS011;14425;56.136;40.360;2023-02-26T00:27:09;17.88;;;9.18;;
26486;SDS011;14425;56.136;40.360;2023-02-26T00:29:36;20.83;;;11.57;;
26486;SDS011;14425;56.136;40.360;2023-02-26T00:32:02;17.00;;;9.23;;
26486;SDS011;14425;56.136;40.360;2023-02-26T00:34:28;16.08;;;8.48;;
26486;SDS011;14425;56.136;40.360;2023-02-26T00:42:18;15.20;;;7.68;;
26486;SDS011;14425;56.136;40.360;2023-02-26T00:44:44;17.05;;;9.68;;
26486;SDS011;14425;56.136;40.360;2023-02-26T00:47:19;16.15;;;8.75;;
26486;SDS011;14425;56.136;40.360;2023-02-26T00:55:03;17.73;;;9.30;;
26486;SDS011;14425;56.136;40.360;2023-02-26T00:57:29;18.40;;;9.63;;
26486;SDS011;14425;56.136;40.360;2023-02-26T00:59:55;15.38;;;8.93;;
26486;SDS011;14425;56.136;40.360;2023-02-26T01:02:20;17.05;;;9.13;;
26486;SDS011;14425;56.136;40.360;2023-02-26T01:04:46;12.93;;;8.65;;
26486;SDS011;14425;56.136;40.360;2023-02-26T01:07:12;19.13;;;10.35;;
26486;SDS011;14425;56.136;40.360;2023-02-26T01:09:38;14.10;;;7.47;;
26486;SDS011;14425;56.136;40.360;2023-02-26T01:12:06;16.67;;;8.65;;
26486;SDS011;14425;56.136;40.360;2023-02-26T01:14:34;15.82;;;9.75;;
26486;SDS011;14425;56.136;40.360;2023-02-26T01:25:03;14.02;;;8.20;;
26486;SDS011;14425;56.136;40.360;2023-02-26T01:27:31;18.05;;;10.20;;
26486;SDS011;14425;56.136;40.360;2023-02-26T01:29:57;20.45;;;9.32;;
26486;SDS011;14425;56.136;40.360;2023-02-26T01:35:08;14.30;;;7.72;;
26486;SDS011;14425;56.136;40.360;2023-02-26T01:37:57;16.85;;;9.55;;
26486;SDS011;14425;56.136;40.360;2023-02-26T01:40:32;17.60;;;8.73;;
26486;SDS011;14425;56.136;40.360;2023-02-26T01:43:09;16.25;;;8.70;;
26486;SDS011;14425;56.136;40.360;2023-02-26T01:45:51;16.85;;;9.38;;
26486;SDS011;14425;56.136;40.360;2023-02-26T01:48:29;15.97;;;8.10;;
26486;SDS011;14425;56.136;40.360;2023-02-26T01:51:00;16.15;;;9.10;;
26486;SDS011;14425;56.136;40.360;2023-02-26T01:53:25;14.45;;;8.70;;
26486;SDS011;14425;56.136;40.360;2023-02-26T01:55:55;18.27;;;10.07;;
26486;SDS011;14425;56.136;40.360;2023-02-26T01:58:25;17.35;;;9.80;;
26486;SDS011;14425;56.136;40.360;2023-02-26T02:00:55;19.50;;;9.40;;
26486;SDS011;14425;56.136;40.360;2023-02-26T02:03:20;16.20;;;9.10;;
26486;SDS011;14425;56.136;40.360;2023-02-26T02:05:54;17.52;;;8.90;;
26486;SDS011;14425;56.136;40.360;2023-02-26T02:08:24;21.98;;;10.90;;
26486;SDS011;14425;56.136;40.360;2023-02-26T02:10:50;14.75;;;8.05;;
26486;SDS011;14425;56.136;40.360;2023-02-26T02:15:54;16.08;;;9.10;;
26486;SDS011;14425;56.136;40.360;2023-02-26T02:24:26;13.90;;;7.63;;
26486;SDS011;14425;56.136;40.360;2023-02-26T02:34:57;18.23;;;9.25;;
26486;SDS011;14425;56.136;40.360;2023-02-26T02:37:31;15.70;;;7.97;;
26486;SDS011;14425;56.136;40.360;2023-02-26T02:45:30;18.52;;;9.40;;
26486;SDS011;14425;56.136;40.360;2023-02-26T02:47:58;18.35;;;9.27;;
26486;SDS011;14425;56.136;40.360;2023-02-26T02:51:12;17.65;;;9.02;;
26486;SDS011;14425;56.136;40.360;2023-02-26T02:54:00;15.68;;;8.43;;
26486;SDS011;14425;56.136;40.360;2023-02-26T02:56:50;18.77;;;8.27;;
26486;SDS011;14425;56.136;40.360;2023-02-26T03:00:21;15.70;;;7.60;;
26486;SDS011;14425;56.136;40.360;2023-02-26T03:02:41;19.13;;;8.95;;
26486;SDS011;14425;56.136;40.360;2023-02-26T03:05:13;17.95;;;8.63;;
26486;SDS011;14425;56.136;40.360;2023-02-26T03:07:42;18.45;;;8.80;;
26486;SDS011;14425;56.136;40.360;2023-02-26T03:10:12;15.48;;;8.50;;
26486;SDS011;14425;56.136;40.360;2023-02-26T03:12:38;12.65;;;7.95;;
26486;SDS011;14425;56.136;40.360;2023-02-26T03:15:04;14.68;;;8.93;;
26486;SDS011;14425;56.136;40.360;2023-02-26T03:21:03;13.18;;;7.68;;
26486;SDS011;14425;56.136;40.360;2023-02-26T03:23:34;11.68;;;7.80;;
26486;SDS011;14425;56.136;40.360;2023-02-26T03:26:23;13.45;;;7.57;;
26486;SDS011;14425;56.136;40.360;2023-02-26T03:29:07;11.82;;;6.10;;
26486;SDS011;14425;56.136;40.360;2023-02-26T03:31:58;10.55;;;6.88;;
26486;SDS011;14425;56.136;40.360;2023-02-26T03:34:31;8.13;;;5.13;;
26486;SDS011;14425;56.136;40.360;2023-02-26T03:40:06;11.50;;;6.05;;
26486;SDS011;14425;56.136;40.360;2023-02-26T03:43:22;8.83;;;5.83;;
26486;SDS011;14425;56.136;40.360;2023-02-26T03:47:54;10.20;;;6.45;;
26486;SDS011;14425;56.136;40.360;2023-02-26T03:53:10;10.35;;;5.88;;
26486;SDS011;14425;56.136;40.360;2023-02-26T03:55:40;7.97;;;4.90;;
26486;SDS011;14425;56.136;40.360;2023-02-26T03:58:13;11.68;;;5.55;;
26486;SDS011;14425;56.136;40.360;2023-02-26T04:00:39;7.63;;;5.30;;
26486;SDS011;14425;56.136;40.360;2023-02-26T04:03:13;14.13;;;4.95;;
26486;SDS011;14425;56.136;40.360;2023-02-26T04:05:47;9.40;;;5.28;;
26486;SDS011;14425;56.136;40.360;2023-02-26T04:08:15;8.00;;;5.07;;
26486;SDS011;14425;56.136;40.360;2023-02-26T04:10:43;11.05;;;4.88;;
26486;SDS011;14425;56.136;40.360;2023-02-26T04:13:15;9.93;;;5.68;;
26486;SDS011;14425;56.136;40.360;2023-02-26T04:15:41;11.18;;;4.25;;
26486;SDS011;14425;56.136;40.360;2023-02-26T04:18:06;9.48;;;5.97;;
26486;SDS011;14425;56.136;40.360;2023-02-26T04:20:32;13.02;;;5.72;;
26486;SDS011;14425;56.136;40.360;2023-02-26T04:22:58;10.07;;;5.50;;
26486;SDS011;14425;56.136;40.360;2023-02-26T04:25:24;9.15;;;5.10;;
26486;SDS011;14425;56.136;40.360;2023-02-26T04:27:49;9.75;;;5.22;;
26486;SDS011;14425;56.136;40.360;2023-02-26T04:30:15;8.57;;;5.10;;
26486;SDS011;14425;56.136;40.360;2023-02-26T04:32:41;9.88;;;5.43;;
26486;SDS011;14425;56.136;40.360;2023-02-26T04:35:06;8.07;;;5.30;;
26486;SDS011;14425;56.136;40.360;2023-02-26T04:37:32;8.15;;;4.65;;
26486;SDS011;14425;56.136;40.360;2023-02-26T04:39:58;11.50;;;5.07;;
26486;SDS011;14425;56.136;40.360;2023-02-26T04:42:23;7.30;;;4.13;;
26486;SDS011;14425;56.136;40.360;2023-02-26T04:44:49;8.43;;;5.20;;
26486;SDS011;14425;56.136;40.360;2023-02-26T04:47:14;7.10;;;4.63;;
26486;SDS011;14425;56.136;40.360;2023-02-26T04:49:40;6.70;;;4.13;;
26486;SDS011;14425;56.136;40.360;2023-02-26T04:52:05;4.95;;;3.78;;
26486;SDS011;14425;56.136;40.360;2023-02-26T04:54:31;6.03;;;3.50;;
26486;SDS011;14425;56.136;40.360;2023-02-26T04:56:56;5.93;;;3.35;;
26486;SDS011;14425;56.136;40.360;2023-02-26T04:59:22;5.03;;;3.55;;
26486;SDS011;14425;56.136;40.360;2023-02-26T05:01:47;5.18;;;3.17;;
26486;SDS011;14425;56.136;40.360;2023-02-26T05:04:13;4.97;;;3.03;;
26486;SDS011;14425;56.136;40.360;2023-02-26T05:06:39;6.55;;;3.15;;
26486;SDS011;14425;56.136;40.360;2023-02-26T05:09:04;2.67;;;2.00;;
26486;SDS011;14425;56.136;40.360;2023-02-26T05:11:30;3.92;;;2.60;;
26486;SDS011;14425;56.136;40.360;2023-02-26T05:13:55;3.42;;;2.40;;
26486;SDS011;14425;56.136;40.360;2023-02-26T05:16:21;3.35;;;2.35;;
26486;SDS011;14425;56.136;40.360;2023-02-26T05:18:46;5.82;;;2.50;;
26486;SDS011;14425;56.136;40.360;2023-02-26T05:21:12;5.90;;;2.85;;
26486;SDS011;14425;56.136;40.360;2023-02-26T05:23:37;3.67;;;2.40;;
26486;SDS011;14425;56.136;40.360;2023-02-26T05:26:03;4.22;;;2.25;;
26486;SDS011;14425;56.136;40.360;2023-02-26T05:28:29;4.70;;;2.28;;
26486;SDS011;14425;56.136;40.360;2023-02-26T05:30:55;2.83;;;1.67;;
26486;SDS011;14425;56.136;40.360;2023-02-26T05:33:22;6.05;;;2.10;;
26486;SDS011;14425;56.136;40.360;2023-02-26T05:35:47;2.42;;;1.83;;
26486;SDS011;14425;56.136;40.360;2023-02-26T05:38:13;3.05;;;2.05;;
26486;SDS011;14425;56.136;40.360;2023-02-26T05:40:39;3.60;;;1.45;;
26486;SDS011;14425;56.136;40.360;2023-02-26T05:43:04;5.50;;;1.58;;
26486;SDS011;14425;56.136;40.360;2023-02-26T05:45:30;3.25;;;1.40;;
26486;SDS011;14425;56.136;40.360;2023-02-26T05:47:55;2.45;;;1.58;;
26486;SDS011;14425;56.136;40.360;2023-02-26T05:50:21;1.67;;;1.05;;
26486;SDS011;14425;56.136;40.360;2023-02-26T05:52:47;1.90;;;1.05;;
26486;SDS011;14425;56.136;40.360;2023-02-26T05:55:12;1.23;;;1.13;;
26486;SDS011;14425;56.136;40.360;2023-02-26T05:57:38;1.23;;;1.13;;
26486;SDS011;14425;56.136;40.360;2023-02-26T06:00:04;2.40;;;1.00;;
26486;SDS011;14425;56.136;40.360;2023-02-26T06:02:31;1.60;;;1.17;;
26486;SDS011;14425;56.136;40.360;2023-02-26T06:04:56;2.45;;;1.00;;
26486;SDS011;14425;56.136;40.360;2023-02-26T06:07:22;1.85;;;1.15;;
26486;SDS011;14425;56.136;40.360;2023-02-26T06:09:48;2.58;;;1.00;;
26486;SDS011;14425;56.136;40.360;2023-02-26T06:12:14;0.90;;;0.70;;
26486;SDS011;14425;56.136;40.360;2023-02-26T06:14:39;1.65;;;1.23;;
26486;SDS011;14425;56.136;40.360;2023-02-26T06:17:05;1.80;;;1.17;;
26486;SDS011;14425;56.136;40.360;2023-02-26T06:19:31;1.42;;;0.90;;
26486;SDS011;14425;56.136;40.360;2023-02-26T06:21:56;1.30;;;0.90;;
26486;SDS011;14425;56.136;40.360;2023-02-26T06:24:22;0.90;;;0.80;;
26486;SDS011;14425;56.136;40.360;2023-02-26T06:26:48;1.00;;;0.90;;
26486;SDS011;14425;56.136;40.360;2023-02-26T06:29:13;1.33;;;0.90;;
26486;SDS011;14425;56.136;40.360;2023-02-26T06:31:39;4.90;;;1.52;;
26486;SDS011;14425;56.136;40.360;2023-02-26T06:34:05;1.85;;;1.50;;
26486;SDS011;14425;56.136;40.360;2023-02-26T06:36:30;1.40;;;1.10;;
26486;SDS011;14425;56.136;40.360;2023-02-26T06:38:56;1.13;;;1.02;;
26486;SDS011;14425;56.136;40.360;2023-02-26T06:41:21;2.13;;;1.42;;
26486;SDS011;14425;56.136;40.360;2023-02-26T06:43:47;2.40;;;1.60;;
26486;SDS011;14425;56.136;40.360;2023-02-26T06:46:12;1.35;;;1.17;;
26486;SDS011;14425;56.136;40.360;2023-02-26T06:48:38;2.67;;;1.52;;
26486;SDS011;14425;56.136;40.360;2023-02-26T06:51:03;3.10;;;1.98;;
26486;SDS011;14425;56.136;40.360;2023-02-26T06:53:29;2.85;;;2.10;;
26486;SDS011;14425;56.136;40.360;2023-02-26T06:55:55;2.97;;;2.15;;
26486;SDS011;14425;56.136;40.360;2023-02-26T06:58:20;3.00;;;2.42;;
26486;SDS011;14425;56.136;40.360;2023-02-26T07:00:46;2.50;;;2.13;;
26486;SDS011;14425;56.136;40.360;2023-02-26T07:03:12;3.00;;;2.28;;
26486;SDS011;14425;56.136;40.360;2023-02-26T07:05:39;4.55;;;3.08;;
26486;SDS011;14425;56.136;40.360;2023-02-26T07:08:06;3.45;;;2.42;;
26486;SDS011;14425;56.136;40.360;2023-02-26T07:10:32;3.53;;;2.55;;
26486;SDS011;14425;56.136;40.360;2023-02-26T07:12:59;4.07;;;3.33;;
26486;SDS011;14425;56.136;40.360;2023-02-26T07:15:25;4.13;;;3.53;;
26486;SDS011;14425;56.136;40.360;2023-02-26T07:17:50;4.82;;;3.15;;
26486;SDS011;14425;56.136;40.360;2023-02-26T07:20:16;4.30;;;3.58;;
26486;SDS011;14425;56.136;40.360;2023-02-26T07:22:42;4.80;;;3.78;;
26486;SDS011;14425;56.136;40.360;2023-02-26T07:25:09;6.00;;;3.25;;
26486;SDS011;14425;56.136;40.360;2023-02-26T07:27:35;4.03;;;3.63;;
26486;SDS011;14425;56.136;40.360;2023-02-26T07:30:01;5.28;;;3.30;;
26486;SDS011;14425;56.136;40.360;2023-02-26T07:32:29;6.38;;;3.60;;
26486;SDS011;14425;56.136;40.360;2023-02-26T07:34:55;6.22;;;3.70;;
26486;SDS011;14425;56.136;40.360;2023-02-26T07:37:20;4.35;;;3.72;;
26486;SDS011;14425;56.136;40.360;2023-02-26T07:39:46;4.50;;;3.70;;
26486;SDS011;14425;56.136;40.360;2023-02-26T07:42:12;7.68;;;4.07;;
26486;SDS011;14425;56.136;40.360;2023-02-26T07:44:37;3.75;;;3.08;;
26486;SDS011;14425;56.136;40.360;2023-02-26T07:47:03;3.08;;;2.72;;
26486;SDS011;14425;56.136;40.360;2023-02-26T07:49:28;4.47;;;3.17;;
26486;SDS011;14425;56.136;40.360;2023-02-26T07:51:54;7.78;;;3.90;;
26486;SDS011;14425;56.136;40.360;2023-02-26T07:54:19;4.45;;;3.88;;
26486;SDS011;14425;56.136;40.360;2023-02-26T07:56:45;8.25;;;4.43;;
26486;SDS011;14425;56.136;40.360;2023-02-26T07:59:11;7.95;;;3.70;;
26486;SDS011;14425;56.136;40.360;2023-02-26T08:01:36;5.22;;;3.90;;
26486;SDS011;14425;56.136;40.360;2023-02-26T08:04:02;5.28;;;3.65;;
26486;SDS011;14425;56.136;40.360;2023-02-26T08:06:28;6.13;;;3.30;;
26486;SDS011;14425;56.136;40.360;2023-02-26T08:08:54;4.05;;;3.03;;
26486;SDS011;14425;56.136;40.360;2023-02-26T08:11:19;4.07;;;2.67;;
26486;SDS011;14425;56.136;40.360;2023-02-26T08:13:45;3.88;;;2.85;;
26486;SDS011;14425;56.136;40.360;2023-02-26T08:16:11;4.00;;;2.47;;
26486;SDS011;14425;56.136;40.360;2023-02-26T08:18:36;4.22;;;3.00;;
26486;SDS011;14425;56.136;40.360;2023-02-26T08:21:04;3.72;;;2.42;;
26486;SDS011;14425;56.136;40.360;2023-02-26T08:23:30;3.90;;;2.67;;
26486;SDS011;14425;56.136;40.360;2023-02-26T08:26:03;5.72;;;3.25;;
26486;SDS011;14425;56.136;40.360;2023-02-26T08:28:30;4.43;;;2.88;;
26486;SDS011;14425;56.136;40.360;2023-02-26T08:30:56;5.63;;;2.42;;
26486;SDS011;14425;56.136;40.360;2023-02-26T08:33:23;3.38;;;2.28;;
26486;SDS011;14425;56.136;40.360;2023-02-26T08:35:49;3.45;;;2.30;;
26486;SDS011;14425;56.136;40.360;2023-02-26T08:38:15;3.70;;;2.25;;
26486;SDS011;14425;56.136;40.360;2023-02-26T08:40:42;3.83;;;2.08;;
26486;SDS011;14425;56.136;40.360;2023-02-26T08:43:07;1.63;;;1.52;;
26486;SDS011;14425;56.136;40.360;2023-02-26T08:45:35;2.13;;;1.92;;
26486;SDS011;14425;56.136;40.360;2023-02-26T08:48:00;2.33;;;2.00;;
26486;SDS011;14425;56.136;40.360;2023-02-26T08:50:26;1.67;;;1.38;;
26486;SDS011;14425;56.136;40.360;2023-02-26T08:52:52;2.08;;;1.70;;
26486;SDS011;14425;56.136;40.360;2023-02-26T08:55:18;3.15;;;2.00;;
26486;SDS011;14425;56.136;40.360;2023-02-26T08:57:43;2.40;;;2.17;;
26486;SDS011;14425;56.136;40.360;2023-02-26T09:00:09;2.40;;;1.45;;
26486;SDS011;14425;56.136;40.360;2023-02-26T09:02:36;3.33;;;2.22;;
26486;SDS011;14425;56.136;40.360;2023-02-26T09:05:02;3.38;;;1.77;;
26486;SDS011;14425;56.136;40.360;2023-02-26T09:07:29;3.25;;;2.03;;
26486;SDS011;14425;56.136;40.360;2023-02-26T09:09:54;4.05;;;1.80;;
26486;SDS011;14425;56.136;40.360;2023-02-26T09:12:20;2.40;;;1.80;;
26486;SDS011;14425;56.136;40.360;2023-02-26T09:14:45;3.65;;;1.92;;
26486;SDS011;14425;56.136;40.360;2023-02-26T09:17:11;3.05;;;1.70;;
26486;SDS011;14425;56.136;40.360;2023-02-26T09:19:37;2.60;;;1.90;;
26486;SDS011;14425;56.136;40.360;2023-02-26T09:22:03;2.88;;;1.63;;
26486;SDS011;14425;56.136;40.360;2023-02-26T09:24:28;3.97;;;1.10;;
26486;SDS011;14425;56.136;40.360;2023-02-26T09:26:54;2.45;;;1.15;;
26486;SDS011;14425;56.136;40.360;2023-02-26T09:29:19;1.85;;;1.38;;
26486;SDS011;14425;56.136;40.360;2023-02-26T09:31:45;1.13;;;0.85;;
26486;SDS011;14425;56.136;40.360;2023-02-26T09:34:13;0.82;;;0.82;;
26486;SDS011;14425;56.136;40.360;2023-02-26T09:36:45;3.15;;;1.40;;
26486;SDS011;14425;56.136;40.360;2023-02-26T09:39:11;1.88;;;1.30;;
26486;SDS011;14425;56.136;40.360;2023-02-26T09:41:38;3.50;;;1.30;;
26486;SDS011;14425;56.136;40.360;2023-02-26T09:51:44;1.35;;;0.65;;
26486;SDS011;14425;56.136;40.360;2023-02-26T09:54:27;3.80;;;1.20;;
26486;SDS011;14425;56.136;40.360;2023-02-26T09:56:58;2.00;;;1.25;;
26486;SDS011;14425;56.136;40.360;2023-02-26T09:59:29;2.65;;;1.38;;
26486;SDS011;14425;56.136;40.360;2023-02-26T10:02:04;3.72;;;1.35;;
26486;SDS011;14425;56.136;40.360;2023-02-26T10:12:25;2.35;;;0.80;;
26486;SDS011;14425;56.136;40.360;2023-02-26T10:38:51;1.58;;;0.90;;
26486;SDS011;14425;56.136;40.360;2023-02-26T10:41:25;2.13;;;1.30;;
26486;SDS011;14425;56.136;40.360;2023-02-26T10:44:00;2.30;;;1.48;;
26486;SDS011;14425;56.136;40.360;2023-02-26T10:47:20;3.17;;;1.20;;
26486;SDS011;14425;56.136;40.360;2023-02-26T10:49:40;1.90;;;1.45;;
26486;SDS011;14425;56.136;40.360;2023-02-26T10:52:13;1.58;;;0.90;;
26486;SDS011;14425;56.136;40.360;2023-02-26T10:54:44;2.00;;;1.33;;
26486;SDS011;14425;56.136;40.360;2023-02-26T10:57:20;1.55;;;1.17;;
26486;SDS011;14425;56.136;40.360;2023-02-26T10:59:49;2.22;;;0.80;;
26486;SDS011;14425;56.136;40.360;2023-02-26T11:02:36;1.63;;;1.10;;
26486;SDS011;14425;56.136;40.360;2023-02-26T11:05:03;1.58;;;0.95;;
26486;SDS011;14425;56.136;40.360;2023-02-26T11:07:31;1.42;;;1.05;;
26486;SDS011;14425;56.136;40.360;2023-02-26T11:10:01;1.83;;;0.80;;
26486;SDS011;14425;56.136;40.360;2023-02-26T11:12:28;1.45;;;1.17;;
26486;SDS011;14425;56.136;40.360;2023-02-26T11:14:53;3.22;;;1.10;;
26486;SDS011;14425;56.136;40.360;2023-02-26T11:17:23;3.05;;;1.20;;
26486;SDS011;14425;56.136;40.360;2023-02-26T11:22:44;1.05;;;0.90;;
26486;SDS011;14425;56.136;40.360;2023-02-26T11:25:13;1.27;;;0.98;;
26486;SDS011;14425;56.136;40.360;2023-02-26T11:27:44;1.05;;;0.80;;
26486;SDS011;14425;56.136;40.360;2023-02-26T11:30:17;1.27;;;0.80;;
26486;SDS011;14425;56.136;40.360;2023-02-26T11:32:45;0.88;;;0.75;;
26486;SDS011;14425;56.136;40.360;2023-02-26T11:35:15;2.65;;;0.55;;
26486;SDS011;14425;56.136;40.360;2023-02-26T11:37:46;1.83;;;0.73;;
26486;SDS011;14425;56.136;40.360;2023-02-26T11:40:18;2.78;;;1.00;;
26486;SDS011;14425;56.136;40.360;2023-02-26T11:42:51;0.93;;;0.85;;
26486;SDS011;14425;56.136;40.360;2023-02-26T11:45:19;1.03;;;0.80;;
26486;SDS011;14425;56.136;40.360;2023-02-26T11:47:47;0.73;;;0.60;;
26486;SDS011;14425;56.136;40.360;2023-02-26T11:50:16;1.63;;;0.60;;
26486;SDS011;14425;56.136;40.360;2023-02-26T11:52:45;2.15;;;1.10;;
26486;SDS011;14425;56.136;40.360;2023-02-26T11:55:20;2.15;;;1.02;;
26486;SDS011;14425;56.136;40.360;2023-02-26T11:57:52;1.00;;;0.60;;
26486;SDS011;14425;56.136;40.360;2023-02-26T12:00:40;1.00;;;0.88;;
26486;SDS011;14425;56.136;40.360;2023-02-26T12:03:05;0.70;;;0.50;;
26486;SDS011;14425;56.136;40.360;2023-02-26T12:05:40;1.10;;;0.90;;
26486;SDS011;14425;56.136;40.360;2023-02-26T12:08:29;0.93;;;0.60;;
26486;SDS011;14425;56.136;40.360;2023-02-26T12:22:26;1.10;;;0.85;;
26486;SDS011;14425;56.136;40.360;2023-02-26T12:55:33;1.17;;;0.82;;
26486;SDS011;14425;56.136;40.360;2023-02-26T13:00:33;0.55;;;0.43;;
26486;SDS011;14425;56.136;40.360;2023-02-26T13:12:16;1.70;;;1.20;;
26486;SDS011;14425;56.136;40.360;2023-02-26T13:15:15;0.98;;;0.68;;
26486;SDS011;14425;56.136;40.360;2023-02-26T13:21:05;3.20;;;0.95;;
26486;SDS011;14425;56.136;40.360;2023-02-26T13:26:23;1.75;;;0.80;;
26486;SDS011;14425;56.136;40.360;2023-02-26T13:29:01;2.95;;;0.70;;
26486;SDS011;14425;56.136;40.360;2023-02-26T13:31:40;2.88;;;0.98;;
26486;SDS011;14425;56.136;40.360;2023-02-26T13:37:30;2.05;;;1.17;;
26486;SDS011;14425;56.136;40.360;2023-02-26T13:42:53;1.50;;;1.23;;
26486;SDS011;14425;56.136;40.360;2023-02-26T13:45:44;1.27;;;1.02;;
26486;SDS011;14425;56.136;40.360;2023-02-26T13:48:32;1.02;;;0.90;;
26486;SDS011;14425;56.136;40.360;2023-02-26T13:51:02;1.35;;;0.88;;
26486;SDS011;14425;56.136;40.360;2023-02-26T13:53:34;0.80;;;0.65;;
26486;SDS011;14425;56.136;40.360;2023-02-26T13:56:21;1.45;;;0.75;;
26486;SDS011;14425;56.136;40.360;2023-02-26T13:59:23;3.13;;;0.73;;
26486;SDS011;14425;56.136;40.360;2023-02-26T14:04:58;1.02;;;0.80;;
26486;SDS011;14425;56.136;40.360;2023-02-26T14:07:45;0.60;;;0.60;;
26486;SDS011;14425;56.136;40.360;2023-02-26T14:10:24;1.00;;;0.90;;
26486;SDS011;14425;56.136;40.360;2023-02-26T14:18:19;2.17;;;1.00;;
26486;SDS011;14425;56.136;40.360;2023-02-26T14:21:16;1.63;;;0.50;;
26486;SDS011;14425;56.136;40.360;2023-02-26T14:24:01;1.38;;;0.93;;
26486;SDS011;14425;56.136;40.360;2023-02-26T14:26:31;1.60;;;1.08;;
26486;SDS011;14425;56.136;40.360;2023-02-26T14:31:44;1.85;;;0.88;;
26486;SDS011;14425;56.136;40.360;2023-02-26T14:34:23;1.93;;;1.00;;
26486;SDS011;14425;56.136;40.360;2023-02-26T14:36:55;1.85;;;1.20;;
26486;SDS011;14425;56.136;40.360;2023-02-26T14:41:49;0.63;;;0.63;;
26486;SDS011;14425;56.136;40.360;2023-02-26T14:44:22;4.80;;;1.08;;
26486;SDS011;14425;56.136;40.360;2023-02-26T14:46:52;1.80;;;0.75;;
26486;SDS011;14425;56.136;40.360;2023-02-26T14:49:24;1.88;;;1.23;;
26486;SDS011;14425;56.136;40.360;2023-02-26T14:57:46;1.67;;;0.93;;
26486;SDS011;14425;56.136;40.360;2023-02-26T15:13:41;2.88;;;1.20;;
26486;SDS011;14425;56.136;40.360;2023-02-26T15:25:01;1.27;;;1.05;;
26486;SDS011;14425;56.136;40.360;2023-02-26T15:27:29;2.75;;;1.40;;
26486;SDS011;14425;56.136;40.360;2023-02-26T15:29:56;2.15;;;1.10;;
26486;SDS011;14425;56.136;40.360;2023-02-26T15:32:25;1.73;;;1.20;;
26486;SDS011;14425;56.136;40.360;2023-02-26T15:37:41;3.33;;;1.20;;
26486;SDS011;14425;56.136;40.360;2023-02-26T15:40:07;1.05;;;0.77;;
26486;SDS011;14425;56.136;40.360;2023-02-26T15:42:34;1.20;;;1.00;;
26486;SDS011;14425;56.136;40.360;2023-02-26T15:45:08;2.22;;;1.23;;
26486;SDS011;14425;56.136;40.360;2023-02-26T15:47:51;1.40;;;1.15;;
26486;SDS011;14425;56.136;40.360;2023-02-26T15:50:20;1.25;;;1.00;;
26486;SDS011;14425;56.136;40.360;2023-02-26T15:52:53;1.00;;;0.90;;
26486;SDS011;14425;56.136;40.360;2023-02-26T15:55:22;3.97;;;1.23;;
26486;SDS011;14425;56.136;40.360;2023-02-26T15:57:48;2.08;;;1.35;;
26486;SDS011;14425;56.136;40.360;2023-02-26T16:00:15;1.95;;;1.20;;
26486;SDS011;14425;56.136;40.360;2023-02-26T16:02:49;2.08;;;1.30;;
26486;SDS011;14425;56.136;40.360;2023-02-26T16:05:14;2.70;;;1.55;;
26486;SDS011;14425;56.136;40.360;2023-02-26T16:07:40;2.92;;;1.50;;
26486;SDS011;14425;56.136;40.360;2023-02-26T16:10:07;1.92;;;1.20;;
26486;SDS011;14425;56.136;40.360;2023-02-26T16:12:42;2.05;;;1.42;;
26486;SDS011;14425;56.136;40.360;2023-02-26T16:15:16;2.28;;;1.25;;
26486;SDS011;14425;56.136;40.360;2023-02-26T16:17:47;1.98;;;1.17;;
26486;SDS011;14425;56.136;40.360;2023-02-26T16:20:23;2.03;;;1.52;;
26486;SDS011;14425;56.136;40.360;2023-02-26T16:22:56;2.53;;;0.95;;
26486;SDS011;14425;56.136;40.360;2023-02-26T16:25:27;3.30;;;1.60;;
26486;SDS011;14425;56.136;40.360;2023-02-26T16:28:14;2.75;;;1.60;;
26486;SDS011;14425;56.136;40.360;2023-02-26T16:30:43;1.55;;;1.08;;
26486;SDS011;14425;56.136;40.360;2023-02-26T16:33:14;1.90;;;1.48;;
26486;SDS011;14425;56.136;40.360;2023-02-26T16:35:48;2.25;;;1.50;;
26486;SDS011;14425;56.136;40.360;2023-02-26T16:38:22;2.45;;;1.40;;
26486;SDS011;14425;56.136;40.360;2023-02-26T16:42:00;2.00;;;1.38;;
26486;SDS011;14425;56.136;40.360;2023-02-26T16:43:55;1.42;;;1.15;;
26486;SDS011;14425;56.136;40.360;2023-02-26T16:49:16;3.63;;;1.17;;
26486;SDS011;14425;56.136;40.360;2023-02-26T16:51:48;3.90;;;1.20;;
26486;SDS011;14425;56.136;40.360;2023-02-26T16:56:47;1.58;;;0.93;;
26486;SDS011;14425;56.136;40.360;2023-02-26T16:59:23;2.80;;;1.27;;
26486;SDS011;14425;56.136;40.360;2023-02-26T17:01:54;1.33;;;1.08;;
26486;SDS011;14425;56.136;40.360;2023-02-26T17:04:24;1.58;;;1.17;;
26486;SDS011;14425;56.136;40.360;2023-02-26T17:06:53;1.70;;;1.08;;
26486;SDS011;14425;56.136;40.360;2023-02-26T17:09:36;1.90;;;1.58;;
26486;SDS011;14425;56.136;40.360;2023-02-26T17:12:05;1.95;;;1.25;;
26486;SDS011;14425;56.136;40.360;2023-02-26T17:14:37;2.78;;;1.33;;
26486;SDS011;14425;56.136;40.360;2023-02-26T17:17:05;8.32;;;1.42;;
26486;SDS011;14425;56.136;40.360;2023-02-26T17:19:31;1.85;;;0.95;;
26486;SDS011;14425;56.136;40.360;2023-02-26T17:21:58;1.63;;;0.70;;
26486;SDS011;14425;56.136;40.360;2023-02-26T17:24:34;1.75;;;1.48;;
26486;SDS011;14425;56.136;40.360;2023-02-26T17:27:05;2.33;;;1.55;;
26486;SDS011;14425;56.136;40.360;2023-02-26T17:29:34;1.02;;;0.93;;
26486;SDS011;14425;56.136;40.360;2023-02-26T17:32:02;3.38;;;2.25;;
26486;SDS011;14425;56.136;40.360;2023-02-26T17:34:29;3.70;;;2.00;;
26486;SDS011;14425;56.136;40.360;2023-02-26T17:36:55;3.55;;;2.20;;
26486;SDS011;14425;56.136;40.360;2023-02-26T17:39:21;5.95;;;1.13;;
26486;SDS011;14425;56.136;40.360;2023-02-26T17:41:47;4.07;;;2.53;;
26486;SDS011;14425;56.136;40.360;2023-02-26T17:44:13;3.42;;;3.03;;
26486;SDS011;14425;56.136;40.360;2023-02-26T17:46:39;1.38;;;1.02;;
26486;SDS011;14425;56.136;40.360;2023-02-26T17:49:09;5.03;;;2.05;;
26486;SDS011;14425;56.136;40.360;2023-02-26T17:51:36;3.88;;;2.30;;
26486;SDS011;14425;56.136;40.360;2023-02-26T17:54:02;5.40;;;3.80;;
26486;SDS011;14425;56.136;40.360;2023-02-26T17:56:28;2.83;;;1.98;;
26486;SDS011;14425;56.136;40.360;2023-02-26T17:58:56;2.08;;;1.50;;
26486;SDS011;14425;56.136;40.360;2023-02-26T18:01:23;6.22;;;3.80;;
26486;SDS011;14425;56.136;40.360;2023-02-26T18:03:51;5.28;;;3.35;;
26486;SDS011;14425;56.136;40.360;2023-02-26T18:06:18;5.35;;;3.25;;
26486;SDS011;14425;56.136;40.360;2023-02-26T18:08:45;1.20;;;1.08;;
26486;SDS011;14425;56.136;40.360;2023-02-26T18:11:12;2.47;;;1.42;;
26486;SDS011;14425;56.136;40.360;2023-02-26T18:13:39;1.58;;;1.40;;
26486;SDS011;14425;56.136;40.360;2023-02-26T18:16:05;4.15;;;3.17;;
26486;SDS011;14425;56.136;40.360;2023-02-26T18:18:37;5.75;;;3.78;;
26486;SDS011;14425;56.136;40.360;2023-02-26T18:21:03;6.22;;;3.47;;